sensor_id;sensor_type;location;lat;lon;timestamp;P1;durP1;ratioP1;P2;durP2;ratioP2
65009;SDS011;51556;50.002;22.014;2023-04-25T00:01:08;3.70;;;2.20;;
65009;SDS011;51556;50.002;22.014;2023-04-25T00:03:34;3.00;;;1.90;;
65009;SDS011;51556;50.002;22.014;2023-04-25T00:06:00;3.10;;;2.10;;
65009;SDS011;51556;50.002;22.014;2023-04-25T00:08:31;2.70;;;2.30;;
65009;SDS011;51556;50.002;22.014;2023-04-25T00:10:56;1.90;;;1.80;;
65009;SDS011;51556;50.002;22.014;2023-04-25T00:13:31;3.40;;;1.60;;
65009;SDS011;51556;50.002;22.014;2023-04-25T00:16:09;2.60;;;2.20;;
65009;SDS011;51556;50.002;22.014;2023-04-25T00:18:34;2.70;;;2.10;;
65009;SDS011;51556;50.002;22.014;2023-04-25T00:21:00;3.10;;;1.90;;
65009;SDS011;51556;50.002;22.014;2023-04-25T00:23:25;3.40;;;2.10;;
65009;SDS011;51556;50.002;22.014;2023-04-25T00:25:51;3.30;;;2.30;;
65009;SDS011;51556;50.002;22.014;2023-04-25T00:28:16;4.40;;;2.30;;
65009;SDS011;51556;50.002;22.014;2023-04-25T00:30:42;2.80;;;2.00;;
65009;SDS011;51556;50.002;22.014;2023-04-25T00:33:08;3.00;;;2.40;;
65009;SDS011;51556;50.002;22.014;2023-04-25T00:35:34;4.10;;;2.70;;
65009;SDS011;51556;50.002;22.014;2023-04-25T00:38:00;4.60;;;2.90;;
65009;SDS011;51556;50.002;22.014;2023-04-25T00:40:25;2.70;;;2.30;;
65009;SDS011;51556;50.002;22.014;2023-04-25T00:42:51;2.80;;;2.20;;
65009;SDS011;51556;50.002;22.014;2023-04-25T00:45:18;2.70;;;2.30;;
65009;SDS011;51556;50.002;22.014;2023-04-25T00:47:44;2.80;;;2.40;;
65009;SDS011;51556;50.002;22.014;2023-04-25T00:50:11;2.90;;;2.60;;
65009;SDS011;51556;50.002;22.014;2023-04-25T00:52:37;4.20;;;2.60;;
65009;SDS011;51556;50.002;22.014;2023-04-25T00:55:06;2.90;;;2.40;;
65009;SDS011;51556;50.002;22.014;2023-04-25T00:57:32;2.20;;;1.80;;
65009;SDS011;51556;50.002;22.014;2023-04-25T00:59:58;3.30;;;2.40;;
65009;SDS011;51556;50.002;22.014;2023-04-25T01:02:24;3.40;;;2.60;;
65009;SDS011;51556;50.002;22.014;2023-04-25T01:04:51;2.50;;;2.10;;
65009;SDS011;51556;50.002;22.014;2023-04-25T01:07:16;3.20;;;2.20;;
65009;SDS011;51556;50.002;22.014;2023-04-25T01:09:42;3.80;;;2.30;;
65009;SDS011;51556;50.002;22.014;2023-04-25T01:12:07;3.80;;;2.40;;
65009;SDS011;51556;50.002;22.014;2023-04-25T01:14:33;4.50;;;2.80;;
65009;SDS011;51556;50.002;22.014;2023-04-25T01:16:58;3.60;;;2.70;;
65009;SDS011;51556;50.002;22.014;2023-04-25T01:19:24;4.60;;;2.60;;
65009;SDS011;51556;50.002;22.014;2023-04-25T01:21:50;2.90;;;2.20;;
65009;SDS011;51556;50.002;22.014;2023-04-25T01:24:16;3.80;;;2.60;;
65009;SDS011;51556;50.002;22.014;2023-04-25T01:26:42;2.60;;;2.20;;
65009;SDS011;51556;50.002;22.014;2023-04-25T01:29:14;4.10;;;2.60;;
65009;SDS011;51556;50.002;22.014;2023-04-25T01:31:41;4.30;;;2.60;;
65009;SDS011;51556;50.002;22.014;2023-04-25T01:34:07;4.20;;;2.90;;
65009;SDS011;51556;50.002;22.014;2023-04-25T01:36:33;3.20;;;2.90;;
65009;SDS011;51556;50.002;22.014;2023-04-25T01:39:00;3.80;;;2.60;;
65009;SDS011;51556;50.002;22.014;2023-04-25T01:41:26;4.20;;;2.60;;
65009;SDS011;51556;50.002;22.014;2023-04-25T01:43:52;2.50;;;2.00;;
65009;SDS011;51556;50.002;22.014;2023-04-25T01:46:17;3.90;;;2.80;;
65009;SDS011;51556;50.002;22.014;2023-04-25T01:48:43;4.30;;;2.90;;
65009;SDS011;51556;50.002;22.014;2023-04-25T01:51:09;2.90;;;2.60;;
65009;SDS011;51556;50.002;22.014;2023-04-25T01:53:36;3.10;;;2.50;;
65009;SDS011;51556;50.002;22.014;2023-04-25T01:56:03;2.80;;;2.50;;
65009;SDS011;51556;50.002;22.014;2023-04-25T01:58:28;3.90;;;3.00;;
65009;SDS011;51556;50.002;22.014;2023-04-25T02:00:54;4.00;;;3.00;;
65009;SDS011;51556;50.002;22.014;2023-04-25T02:03:19;4.60;;;2.60;;
65009;SDS011;51556;50.002;22.014;2023-04-25T02:05:45;3.90;;;3.10;;
65009;SDS011;51556;50.002;22.014;2023-04-25T02:08:11;4.50;;;2.80;;
65009;SDS011;51556;50.002;22.014;2023-04-25T02:10:36;5.30;;;2.80;;
65009;SDS011;51556;50.002;22.014;2023-04-25T02:13:02;3.40;;;2.70;;
65009;SDS011;51556;50.002;22.014;2023-04-25T02:15:30;2.70;;;2.50;;
65009;SDS011;51556;50.002;22.014;2023-04-25T02:17:55;4.60;;;3.20;;
65009;SDS011;51556;50.002;22.014;2023-04-25T02:20:22;5.10;;;2.90;;
65009;SDS011;51556;50.002;22.014;2023-04-25T02:22:48;3.60;;;3.00;;
65009;SDS011;51556;50.002;22.014;2023-04-25T02:25:14;3.30;;;2.70;;
65009;SDS011;51556;50.002;22.014;2023-04-25T02:27:41;3.70;;;2.90;;
65009;SDS011;51556;50.002;22.014;2023-04-25T02:30:07;4.30;;;2.60;;
65009;SDS011;51556;50.002;22.014;2023-04-25T02:32:33;3.90;;;3.00;;
65009;SDS011;51556;50.002;22.014;2023-04-25T02:34:59;4.90;;;2.90;;
65009;SDS011;51556;50.002;22.014;2023-04-25T02:37:29;3.70;;;3.10;;
65009;SDS011;51556;50.002;22.014;2023-04-25T02:39:57;3.20;;;2.90;;
65009;SDS011;51556;50.002;22.014;2023-04-25T02:42:22;3.80;;;3.10;;
65009;SDS011;51556;50.002;22.014;2023-04-25T02:44:48;3.30;;;2.80;;
65009;SDS011;51556;50.002;22.014;2023-04-25T02:47:13;4.90;;;3.00;;
65009;SDS011;51556;50.002;22.014;2023-04-25T02:49:39;3.20;;;2.90;;
65009;SDS011;51556;50.002;22.014;2023-04-25T02:52:05;4.10;;;3.00;;
65009;SDS011;51556;50.002;22.014;2023-04-25T02:54:31;5.80;;;3.00;;
65009;SDS011;51556;50.002;22.014;2023-04-25T02:56:56;3.50;;;3.20;;
65009;SDS011;51556;50.002;22.014;2023-04-25T02:59:22;4.20;;;3.30;;
65009;SDS011;51556;50.002;22.014;2023-04-25T03:01:47;5.50;;;3.20;;
65009;SDS011;51556;50.002;22.014;2023-04-25T03:04:13;4.40;;;3.20;;
65009;SDS011;51556;50.002;22.014;2023-04-25T03:06:38;4.00;;;3.40;;
65009;SDS011;51556;50.002;22.014;2023-04-25T03:09:04;3.70;;;3.10;;
65009;SDS011;51556;50.002;22.014;2023-04-25T03:11:29;5.50;;;3.20;;
65009;SDS011;51556;50.002;22.014;2023-04-25T03:13:55;6.00;;;3.10;;
65009;SDS011;51556;50.002;22.014;2023-04-25T03:16:21;3.30;;;2.60;;
65009;SDS011;51556;50.002;22.014;2023-04-25T03:18:47;3.60;;;3.10;;
65009;SDS011;51556;50.002;22.014;2023-04-25T03:21:16;3.40;;;3.10;;
65009;SDS011;51556;50.002;22.014;2023-04-25T03:23:42;4.70;;;3.10;;
65009;SDS011;51556;50.002;22.014;2023-04-25T03:26:08;6.20;;;3.10;;
65009;SDS011;51556;50.002;22.014;2023-04-25T03:28:33;3.90;;;2.80;;
65009;SDS011;51556;50.002;22.014;2023-04-25T03:30:59;7.80;;;5.00;;
65009;SDS011;51556;50.002;22.014;2023-04-25T03:33:24;7.60;;;4.50;;
65009;SDS011;51556;50.002;22.014;2023-04-25T03:35:49;5.10;;;3.50;;
65009;SDS011;51556;50.002;22.014;2023-04-25T03:38:15;3.80;;;3.00;;
65009;SDS011;51556;50.002;22.014;2023-04-25T03:40:40;3.40;;;2.90;;
65009;SDS011;51556;50.002;22.014;2023-04-25T03:43:06;3.40;;;2.80;;
65009;SDS011;51556;50.002;22.014;2023-04-25T03:45:32;3.00;;;2.70;;
65009;SDS011;51556;50.002;22.014;2023-04-25T03:47:57;4.10;;;3.10;;
65009;SDS011;51556;50.002;22.014;2023-04-25T03:50:23;3.40;;;2.80;;
65009;SDS011;51556;50.002;22.014;2023-04-25T03:52:48;3.90;;;2.70;;
65009;SDS011;51556;50.002;22.014;2023-04-25T03:55:14;4.10;;;3.20;;
65009;SDS011;51556;50.002;22.014;2023-04-25T03:57:39;4.90;;;3.10;;
65009;SDS011;51556;50.002;22.014;2023-04-25T04:00:05;4.30;;;3.10;;
65009;SDS011;51556;50.002;22.014;2023-04-25T04:02:31;3.90;;;3.30;;
65009;SDS011;51556;50.002;22.014;2023-04-25T04:04:58;4.10;;;3.40;;
65009;SDS011;51556;50.002;22.014;2023-04-25T04:07:23;4.10;;;3.10;;
65009;SDS011;51556;50.002;22.014;2023-04-25T04:09:49;3.20;;;2.90;;
65009;SDS011;51556;50.002;22.014;2023-04-25T04:12:14;3.70;;;3.10;;
65009;SDS011;51556;50.002;22.014;2023-04-25T04:14:40;4.20;;;3.20;;
65009;SDS011;51556;50.002;22.014;2023-04-25T04:17:05;3.70;;;2.80;;
65009;SDS011;51556;50.002;22.014;2023-04-25T04:19:39;4.60;;;2.90;;
65009;SDS011;51556;50.002;22.014;2023-04-25T04:22:05;3.90;;;3.00;;
65009;SDS011;51556;50.002;22.014;2023-04-25T04:24:35;3.40;;;3.10;;
65009;SDS011;51556;50.002;22.014;2023-04-25T04:27:00;4.90;;;3.80;;
65009;SDS011;51556;50.002;22.014;2023-04-25T04:29:29;4.50;;;3.40;;
65009;SDS011;51556;50.002;22.014;2023-04-25T04:31:55;5.40;;;3.10;;
65009;SDS011;51556;50.002;22.014;2023-04-25T04:34:20;3.80;;;3.40;;
65009;SDS011;51556;50.002;22.014;2023-04-25T04:36:45;4.00;;;3.30;;
65009;SDS011;51556;50.002;22.014;2023-04-25T04:39:12;4.80;;;3.10;;
65009;SDS011;51556;50.002;22.014;2023-04-25T04:41:38;4.40;;;3.20;;
65009;SDS011;51556;50.002;22.014;2023-04-25T04:44:04;4.80;;;3.40;;
65009;SDS011;51556;50.002;22.014;2023-04-25T04:46:31;4.50;;;3.80;;
65009;SDS011;51556;50.002;22.014;2023-04-25T04:51:28;5.70;;;3.20;;
65009;SDS011;51556;50.002;22.014;2023-04-25T04:53:55;4.40;;;3.60;;
65009;SDS011;51556;50.002;22.014;2023-04-25T04:56:23;6.70;;;3.90;;
65009;SDS011;51556;50.002;22.014;2023-04-25T04:58:50;4.00;;;3.60;;
65009;SDS011;51556;50.002;22.014;2023-04-25T05:01:17;5.60;;;3.90;;
65009;SDS011;51556;50.002;22.014;2023-04-25T05:03:43;4.50;;;3.60;;
65009;SDS011;51556;50.002;22.014;2023-04-25T05:06:08;4.70;;;4.20;;
65009;SDS011;51556;50.002;22.014;2023-04-25T05:08:34;6.80;;;5.10;;
65009;SDS011;51556;50.002;22.014;2023-04-25T05:10:59;10.50;;;9.10;;
65009;SDS011;51556;50.002;22.014;2023-04-25T05:13:25;9.90;;;8.90;;
65009;SDS011;51556;50.002;22.014;2023-04-25T05:15:50;8.60;;;6.60;;
65009;SDS011;51556;50.002;22.014;2023-04-25T05:18:15;5.20;;;4.50;;
65009;SDS011;51556;50.002;22.014;2023-04-25T05:20:41;5.70;;;4.20;;
65009;SDS011;51556;50.002;22.014;2023-04-25T05:23:06;6.30;;;4.60;;
65009;SDS011;51556;50.002;22.014;2023-04-25T05:25:32;6.20;;;4.80;;
65009;SDS011;51556;50.002;22.014;2023-04-25T05:27:57;7.20;;;4.80;;
65009;SDS011;51556;50.002;22.014;2023-04-25T05:30:23;4.90;;;4.00;;
65009;SDS011;51556;50.002;22.014;2023-04-25T05:32:48;5.60;;;4.20;;
65009;SDS011;51556;50.002;22.014;2023-04-25T05:35:14;5.00;;;4.20;;
65009;SDS011;51556;50.002;22.014;2023-04-25T05:37:40;5.00;;;3.90;;
65009;SDS011;51556;50.002;22.014;2023-04-25T05:40:06;5.10;;;4.50;;
65009;SDS011;51556;50.002;22.014;2023-04-25T05:42:32;10.20;;;4.10;;
65009;SDS011;51556;50.002;22.014;2023-04-25T05:44:57;4.50;;;3.80;;
65009;SDS011;51556;50.002;22.014;2023-04-25T05:47:23;5.00;;;4.20;;
65009;SDS011;51556;50.002;22.014;2023-04-25T05:49:48;5.90;;;4.70;;
65009;SDS011;51556;50.002;22.014;2023-04-25T05:52:14;6.50;;;4.20;;
65009;SDS011;51556;50.002;22.014;2023-04-25T05:54:40;7.40;;;4.90;;
65009;SDS011;51556;50.002;22.014;2023-04-25T05:57:06;6.60;;;4.30;;
65009;SDS011;51556;50.002;22.014;2023-04-25T05:59:31;5.20;;;4.40;;
65009;SDS011;51556;50.002;22.014;2023-04-25T06:01:57;5.10;;;4.50;;
65009;SDS011;51556;50.002;22.014;2023-04-25T06:04:22;6.00;;;4.50;;
65009;SDS011;51556;50.002;22.014;2023-04-25T06:06:48;6.30;;;4.60;;
65009;SDS011;51556;50.002;22.014;2023-04-25T06:09:19;6.70;;;4.90;;
65009;SDS011;51556;50.002;22.014;2023-04-25T06:11:45;8.10;;;5.60;;
65009;SDS011;51556;50.002;22.014;2023-04-25T06:14:10;8.40;;;5.20;;
65009;SDS011;51556;50.002;22.014;2023-04-25T06:16:35;7.10;;;4.70;;
65009;SDS011;51556;50.002;22.014;2023-04-25T06:19:01;7.10;;;4.50;;
65009;SDS011;51556;50.002;22.014;2023-04-25T06:21:26;8.50;;;5.60;;
65009;SDS011;51556;50.002;22.014;2023-04-25T06:23:52;6.20;;;4.70;;
65009;SDS011;51556;50.002;22.014;2023-04-25T06:26:18;8.90;;;5.90;;
65009;SDS011;51556;50.002;22.014;2023-04-25T06:28:44;6.90;;;5.50;;
65009;SDS011;51556;50.002;22.014;2023-04-25T06:31:09;8.00;;;5.00;;
65009;SDS011;51556;50.002;22.014;2023-04-25T06:33:35;6.80;;;6.00;;
65009;SDS011;51556;50.002;22.014;2023-04-25T06:36:00;9.00;;;6.20;;
65009;SDS011;51556;50.002;22.014;2023-04-25T06:38:26;9.80;;;8.20;;
65009;SDS011;51556;50.002;22.014;2023-04-25T06:40:51;9.90;;;7.70;;
65009;SDS011;51556;50.002;22.014;2023-04-25T06:43:17;11.40;;;8.40;;
65009;SDS011;51556;50.002;22.014;2023-04-25T06:45:42;12.50;;;10.70;;
65009;SDS011;51556;50.002;22.014;2023-04-25T06:48:07;16.30;;;12.20;;
65009;SDS011;51556;50.002;22.014;2023-04-25T06:50:33;14.90;;;10.80;;
65009;SDS011;51556;50.002;22.014;2023-04-25T06:52:59;20.70;;;13.10;;
65009;SDS011;51556;50.002;22.014;2023-04-25T06:55:26;17.20;;;12.00;;
65009;SDS011;51556;50.002;22.014;2023-04-25T06:57:52;17.50;;;13.00;;
65009;SDS011;51556;50.002;22.014;2023-04-25T07:00:17;11.70;;;9.40;;
65009;SDS011;51556;50.002;22.014;2023-04-25T07:02:43;9.60;;;6.70;;
65009;SDS011;51556;50.002;22.014;2023-04-25T07:05:09;8.40;;;6.70;;
65009;SDS011;51556;50.002;22.014;2023-04-25T07:07:34;6.80;;;5.10;;
65009;SDS011;51556;50.002;22.014;2023-04-25T07:10:00;7.00;;;4.30;;
65009;SDS011;51556;50.002;22.014;2023-04-25T07:12:25;5.90;;;4.20;;
65009;SDS011;51556;50.002;22.014;2023-04-25T07:14:51;6.10;;;3.60;;
65009;SDS011;51556;50.002;22.014;2023-04-25T07:17:16;5.30;;;3.60;;
65009;SDS011;51556;50.002;22.014;2023-04-25T07:19:41;5.50;;;3.10;;
65009;SDS011;51556;50.002;22.014;2023-04-25T07:22:08;5.20;;;3.40;;
65009;SDS011;51556;50.002;22.014;2023-04-25T07:24:34;5.20;;;3.10;;
65009;SDS011;51556;50.002;22.014;2023-04-25T07:26:59;2.40;;;2.20;;
65009;SDS011;51556;50.002;22.014;2023-04-25T07:29:26;4.60;;;2.00;;
65009;SDS011;51556;50.002;22.014;2023-04-25T07:31:51;3.00;;;1.70;;
65009;SDS011;51556;50.002;22.014;2023-04-25T07:34:18;2.40;;;1.70;;
65009;SDS011;51556;50.002;22.014;2023-04-25T07:36:43;1.90;;;1.70;;
65009;SDS011;51556;50.002;22.014;2023-04-25T07:39:09;2.60;;;1.80;;
65009;SDS011;51556;50.002;22.014;2023-04-25T07:41:35;2.00;;;1.80;;
65009;SDS011;51556;50.002;22.014;2023-04-25T07:44:01;3.30;;;1.90;;
65009;SDS011;51556;50.002;22.014;2023-04-25T07:46:26;1.60;;;1.40;;
65009;SDS011;51556;50.002;22.014;2023-04-25T07:48:52;1.90;;;1.30;;
65009;SDS011;51556;50.002;22.014;2023-04-25T07:51:17;1.50;;;1.40;;
65009;SDS011;51556;50.002;22.014;2023-04-25T07:53:45;2.40;;;1.40;;
65009;SDS011;51556;50.002;22.014;2023-04-25T07:56:11;3.50;;;2.20;;
65009;SDS011;51556;50.002;22.014;2023-04-25T07:58:36;2.60;;;1.60;;
65009;SDS011;51556;50.002;22.014;2023-04-25T08:01:02;2.50;;;1.80;;
65009;SDS011;51556;50.002;22.014;2023-04-25T08:03:27;2.30;;;1.90;;
65009;SDS011;51556;50.002;22.014;2023-04-25T08:05:53;3.00;;;1.50;;
65009;SDS011;51556;50.002;22.014;2023-04-25T08:08:18;2.10;;;1.70;;
65009;SDS011;51556;50.002;22.014;2023-04-25T08:10:44;3.20;;;1.50;;
65009;SDS011;51556;50.002;22.014;2023-04-25T08:13:09;5.20;;;1.60;;
65009;SDS011;51556;50.002;22.014;2023-04-25T08:15:35;2.10;;;1.60;;
65009;SDS011;51556;50.002;22.014;2023-04-25T08:18:00;2.80;;;1.80;;
65009;SDS011;51556;50.002;22.014;2023-04-25T08:20:26;2.90;;;1.60;;
65009;SDS011;51556;50.002;22.014;2023-04-25T08:22:51;2.10;;;1.70;;
65009;SDS011;51556;50.002;22.014;2023-04-25T08:25:17;2.80;;;1.50;;
65009;SDS011;51556;50.002;22.014;2023-04-25T08:27:42;1.90;;;1.50;;
65009;SDS011;51556;50.002;22.014;2023-04-25T08:30:08;1.80;;;1.50;;
65009;SDS011;51556;50.002;22.014;2023-04-25T08:32:41;2.70;;;1.80;;
65009;SDS011;51556;50.002;22.014;2023-04-25T08:35:07;4.40;;;2.50;;
65009;SDS011;51556;50.002;22.014;2023-04-25T08:37:32;3.40;;;2.60;;
65009;SDS011;51556;50.002;22.014;2023-04-25T08:39:58;3.40;;;2.70;;
65009;SDS011;51556;50.002;22.014;2023-04-25T08:42:24;2.50;;;2.10;;
65009;SDS011;51556;50.002;22.014;2023-04-25T08:44:53;3.90;;;2.70;;
65009;SDS011;51556;50.002;22.014;2023-04-25T08:47:21;4.50;;;3.00;;
65009;SDS011;51556;50.002;22.014;2023-04-25T08:49:48;3.80;;;2.90;;
65009;SDS011;51556;50.002;22.014;2023-04-25T08:52:14;4.30;;;3.20;;
65009;SDS011;51556;50.002;22.014;2023-04-25T08:54:47;5.30;;;2.60;;
65009;SDS011;51556;50.002;22.014;2023-04-25T08:57:14;4.10;;;3.30;;
65009;SDS011;51556;50.002;22.014;2023-04-25T08:59:40;2.90;;;2.60;;
65009;SDS011;51556;50.002;22.014;2023-04-25T09:02:10;3.50;;;3.00;;
65009;SDS011;51556;50.002;22.014;2023-04-25T09:04:39;3.20;;;2.80;;
65009;SDS011;51556;50.002;22.014;2023-04-25T09:07:06;4.90;;;2.80;;
65009;SDS011;51556;50.002;22.014;2023-04-25T09:09:31;4.10;;;3.50;;
65009;SDS011;51556;50.002;22.014;2023-04-25T09:11:57;4.50;;;3.70;;
65009;SDS011;51556;50.002;22.014;2023-04-25T09:14:24;3.70;;;2.90;;
65009;SDS011;51556;50.002;22.014;2023-04-25T09:19:29;3.40;;;2.80;;
65009;SDS011;51556;50.002;22.014;2023-04-25T09:21:57;4.10;;;3.20;;
65009;SDS011;51556;50.002;22.014;2023-04-25T09:24:34;3.50;;;3.10;;
65009;SDS011;51556;50.002;22.014;2023-04-25T09:27:06;3.80;;;3.00;;
65009;SDS011;51556;50.002;22.014;2023-04-25T09:29:36;4.10;;;2.80;;
65009;SDS011;51556;50.002;22.014;2023-04-25T09:34:55;5.40;;;3.80;;
65009;SDS011;51556;50.002;22.014;2023-04-25T09:37:22;5.80;;;3.60;;
65009;SDS011;51556;50.002;22.014;2023-04-25T09:39:51;4.10;;;3.40;;
65009;SDS011;51556;50.002;22.014;2023-04-25T09:42:22;4.60;;;3.40;;
65009;SDS011;51556;50.002;22.014;2023-04-25T09:44:49;4.90;;;4.30;;
65009;SDS011;51556;50.002;22.014;2023-04-25T09:47:17;4.40;;;4.00;;
65009;SDS011;51556;50.002;22.014;2023-04-25T09:49:43;4.70;;;3.90;;
65009;SDS011;51556;50.002;22.014;2023-04-25T09:52:09;6.10;;;4.20;;
65009;SDS011;51556;50.002;22.014;2023-04-25T09:54:40;4.60;;;3.60;;
65009;SDS011;51556;50.002;22.014;2023-04-25T09:57:10;5.60;;;4.00;;
65009;SDS011;51556;50.002;22.014;2023-04-25T09:59:47;3.40;;;2.50;;
65009;SDS011;51556;50.002;22.014;2023-04-25T10:02:15;4.10;;;3.00;;
65009;SDS011;51556;50.002;22.014;2023-04-25T10:04:50;5.10;;;3.80;;
65009;SDS011;51556;50.002;22.014;2023-04-25T10:07:20;6.50;;;3.90;;
65009;SDS011;51556;50.002;22.014;2023-04-25T10:09:50;4.30;;;3.70;;
65009;SDS011;51556;50.002;22.014;2023-04-25T10:12:26;5.30;;;4.10;;
65009;SDS011;51556;50.002;22.014;2023-04-25T10:14:52;3.70;;;3.20;;
65009;SDS011;51556;50.002;22.014;2023-04-25T10:17:19;6.00;;;3.10;;
65009;SDS011;51556;50.002;22.014;2023-04-25T10:19:46;4.50;;;4.10;;
65009;SDS011;51556;50.002;22.014;2023-04-25T10:22:16;6.20;;;4.20;;
65009;SDS011;51556;50.002;22.014;2023-04-25T10:24:46;5.20;;;4.30;;
65009;SDS011;51556;50.002;22.014;2023-04-25T10:27:11;6.40;;;4.50;;
65009;SDS011;51556;50.002;22.014;2023-04-25T10:29:37;5.40;;;4.20;;
65009;SDS011;51556;50.002;22.014;2023-04-25T10:32:03;4.60;;;4.10;;
65009;SDS011;51556;50.002;22.014;2023-04-25T10:34:39;6.90;;;4.60;;
65009;SDS011;51556;50.002;22.014;2023-04-25T10:37:08;7.50;;;5.80;;
65009;SDS011;51556;50.002;22.014;2023-04-25T10:39:40;6.40;;;4.50;;
65009;SDS011;51556;50.002;22.014;2023-04-25T10:42:07;6.00;;;5.20;;
65009;SDS011;51556;50.002;22.014;2023-04-25T10:44:33;6.30;;;4.30;;
65009;SDS011;51556;50.002;22.014;2023-04-25T10:47:00;6.80;;;5.00;;
65009;SDS011;51556;50.002;22.014;2023-04-25T10:49:38;5.50;;;4.00;;
65009;SDS011;51556;50.002;22.014;2023-04-25T10:54:54;6.10;;;4.60;;
65009;SDS011;51556;50.002;22.014;2023-04-25T10:57:28;7.90;;;4.90;;
65009;SDS011;51556;50.002;22.014;2023-04-25T10:59:57;7.20;;;5.80;;
65009;SDS011;51556;50.002;22.014;2023-04-25T11:02:26;5.90;;;5.20;;
65009;SDS011;51556;50.002;22.014;2023-04-25T11:04:53;9.40;;;6.60;;
65009;SDS011;51556;50.002;22.014;2023-04-25T11:07:33;7.70;;;5.90;;
65009;SDS011;51556;50.002;22.014;2023-04-25T11:10:05;7.20;;;5.50;;
65009;SDS011;51556;50.002;22.014;2023-04-25T11:12:31;8.60;;;7.10;;
65009;SDS011;51556;50.002;22.014;2023-04-25T11:15:04;7.90;;;6.30;;
65009;SDS011;51556;50.002;22.014;2023-04-25T11:17:31;9.30;;;6.00;;
65009;SDS011;51556;50.002;22.014;2023-04-25T11:19:56;5.80;;;5.20;;
65009;SDS011;51556;50.002;22.014;2023-04-25T11:22:22;9.00;;;7.40;;
65009;SDS011;51556;50.002;22.014;2023-04-25T11:24:48;7.70;;;5.90;;
65009;SDS011;51556;50.002;22.014;2023-04-25T11:27:13;7.20;;;5.40;;
65009;SDS011;51556;50.002;22.014;2023-04-25T11:29:40;10.30;;;8.30;;
65009;SDS011;51556;50.002;22.014;2023-04-25T11:32:06;10.20;;;8.10;;
65009;SDS011;51556;50.002;22.014;2023-04-25T11:34:32;7.80;;;6.50;;
65009;SDS011;51556;50.002;22.014;2023-04-25T11:36:58;8.30;;;7.30;;
65009;SDS011;51556;50.002;22.014;2023-04-25T11:39:26;7.80;;;6.30;;
65009;SDS011;51556;50.002;22.014;2023-04-25T11:41:52;9.80;;;7.70;;
65009;SDS011;51556;50.002;22.014;2023-04-25T11:44:18;7.70;;;6.90;;
65009;SDS011;51556;50.002;22.014;2023-04-25T11:46:45;7.90;;;5.90;;
65009;SDS011;51556;50.002;22.014;2023-04-25T11:49:11;12.10;;;8.00;;
65009;SDS011;51556;50.002;22.014;2023-04-25T11:51:45;7.60;;;6.10;;
65009;SDS011;51556;50.002;22.014;2023-04-25T11:54:12;8.50;;;6.00;;
65009;SDS011;51556;50.002;22.014;2023-04-25T11:56:42;9.70;;;8.00;;
65009;SDS011;51556;50.002;22.014;2023-04-25T11:59:08;7.70;;;6.80;;
65009;SDS011;51556;50.002;22.014;2023-04-25T12:01:38;9.10;;;7.40;;
65009;SDS011;51556;50.002;22.014;2023-04-25T12:04:18;13.00;;;7.40;;
65009;SDS011;51556;50.002;22.014;2023-04-25T12:06:46;6.80;;;5.70;;
65009;SDS011;51556;50.002;22.014;2023-04-25T12:09:14;7.60;;;6.20;;
65009;SDS011;51556;50.002;22.014;2023-04-25T12:11:47;10.10;;;6.70;;
65009;SDS011;51556;50.002;22.014;2023-04-25T12:14:20;9.00;;;6.70;;
65009;SDS011;51556;50.002;22.014;2023-04-25T12:16:49;9.30;;;7.40;;
65009;SDS011;51556;50.002;22.014;2023-04-25T12:19:16;11.70;;;8.30;;
65009;SDS011;51556;50.002;22.014;2023-04-25T12:21:43;33.50;;;15.60;;
65009;SDS011;51556;50.002;22.014;2023-04-25T12:24:27;35.10;;;19.40;;
65009;SDS011;51556;50.002;22.014;2023-04-25T12:26:57;49.30;;;26.40;;
65009;SDS011;51556;50.002;22.014;2023-04-25T12:29:27;9.30;;;5.90;;
65009;SDS011;51556;50.002;22.014;2023-04-25T12:31:54;6.50;;;4.80;;
65009;SDS011;51556;50.002;22.014;2023-04-25T12:34:21;7.40;;;5.00;;
65009;SDS011;51556;50.002;22.014;2023-04-25T12:36:48;7.60;;;6.40;;
65009;SDS011;51556;50.002;22.014;2023-04-25T12:39:15;6.70;;;5.00;;
65009;SDS011;51556;50.002;22.014;2023-04-25T12:41:42;5.60;;;5.00;;
65009;SDS011;51556;50.002;22.014;2023-04-25T12:44:09;11.10;;;5.60;;
65009;SDS011;51556;50.002;22.014;2023-04-25T12:46:35;8.10;;;6.00;;
65009;SDS011;51556;50.002;22.014;2023-04-25T12:49:01;8.30;;;7.10;;
65009;SDS011;51556;50.002;22.014;2023-04-25T12:51:28;7.80;;;5.90;;
65009;SDS011;51556;50.002;22.014;2023-04-25T12:53:54;7.10;;;6.20;;
65009;SDS011;51556;50.002;22.014;2023-04-25T12:56:19;9.20;;;7.90;;
65009;SDS011;51556;50.002;22.014;2023-04-25T12:58:45;9.60;;;7.30;;
65009;SDS011;51556;50.002;22.014;2023-04-25T13:01:11;10.00;;;7.00;;
65009;SDS011;51556;50.002;22.014;2023-04-25T13:03:38;9.80;;;6.50;;
65009;SDS011;51556;50.002;22.014;2023-04-25T13:06:05;9.20;;;5.60;;
65009;SDS011;51556;50.002;22.014;2023-04-25T13:08:32;12.40;;;8.30;;
65009;SDS011;51556;50.002;22.014;2023-04-25T13:10:57;11.10;;;8.20;;
65009;SDS011;51556;50.002;22.014;2023-04-25T13:13:23;15.30;;;8.90;;
65009;SDS011;51556;50.002;22.014;2023-04-25T13:15:48;13.10;;;10.70;;
65009;SDS011;51556;50.002;22.014;2023-04-25T13:18:14;11.90;;;9.50;;
65009;SDS011;51556;50.002;22.014;2023-04-25T13:20:40;10.60;;;8.10;;
65009;SDS011;51556;50.002;22.014;2023-04-25T13:23:06;13.20;;;9.10;;
65009;SDS011;51556;50.002;22.014;2023-04-25T13:25:31;12.10;;;8.10;;
65009;SDS011;51556;50.002;22.014;2023-04-25T13:27:56;11.20;;;8.40;;
65009;SDS011;51556;50.002;22.014;2023-04-25T13:30:22;12.00;;;9.20;;
65009;SDS011;51556;50.002;22.014;2023-04-25T13:32:47;13.20;;;11.50;;
65009;SDS011;51556;50.002;22.014;2023-04-25T13:35:13;8.90;;;6.60;;
65009;SDS011;51556;50.002;22.014;2023-04-25T13:37:39;9.30;;;7.50;;
65009;SDS011;51556;50.002;22.014;2023-04-25T13:40:06;9.80;;;8.60;;
65009;SDS011;51556;50.002;22.014;2023-04-25T13:42:35;7.50;;;5.80;;
65009;SDS011;51556;50.002;22.014;2023-04-25T13:45:02;11.10;;;8.80;;
65009;SDS011;51556;50.002;22.014;2023-04-25T13:47:28;10.20;;;7.70;;
65009;SDS011;51556;50.002;22.014;2023-04-25T13:49:55;11.00;;;7.60;;
65009;SDS011;51556;50.002;22.014;2023-04-25T13:52:21;11.40;;;7.00;;
65009;SDS011;51556;50.002;22.014;2023-04-25T13:54:46;9.70;;;7.20;;
65009;SDS011;51556;50.002;22.014;2023-04-25T13:57:12;9.30;;;7.50;;
65009;SDS011;51556;50.002;22.014;2023-04-25T13:59:38;8.70;;;7.30;;
65009;SDS011;51556;50.002;22.014;2023-04-25T14:02:06;8.70;;;6.60;;
65009;SDS011;51556;50.002;22.014;2023-04-25T14:04:32;12.50;;;8.10;;
65009;SDS011;51556;50.002;22.014;2023-04-25T14:06:58;13.80;;;9.20;;
65009;SDS011;51556;50.002;22.014;2023-04-25T14:09:24;10.30;;;7.70;;
65009;SDS011;51556;50.002;22.014;2023-04-25T14:11:52;10.30;;;7.10;;
65009;SDS011;51556;50.002;22.014;2023-04-25T14:14:18;12.00;;;7.90;;
65009;SDS011;51556;50.002;22.014;2023-04-25T14:16:46;8.40;;;6.70;;
65009;SDS011;51556;50.002;22.014;2023-04-25T14:19:17;14.50;;;8.00;;
65009;SDS011;51556;50.002;22.014;2023-04-25T14:21:43;12.50;;;8.60;;
65009;SDS011;51556;50.002;22.014;2023-04-25T14:24:09;12.80;;;8.50;;
65009;SDS011;51556;50.002;22.014;2023-04-25T14:26:38;14.40;;;8.20;;
65009;SDS011;51556;50.002;22.014;2023-04-25T14:29:04;9.70;;;7.50;;
65009;SDS011;51556;50.002;22.014;2023-04-25T14:31:31;10.80;;;7.60;;
65009;SDS011;51556;50.002;22.014;2023-04-25T14:33:57;8.50;;;6.20;;
65009;SDS011;51556;50.002;22.014;2023-04-25T14:36:28;7.00;;;5.00;;
65009;SDS011;51556;50.002;22.014;2023-04-25T14:38:54;8.20;;;5.90;;
65009;SDS011;51556;50.002;22.014;2023-04-25T14:41:22;12.20;;;8.50;;